sensor_id;sensor_type;location;lat;lon;timestamp;P1;durP1;ratioP1;P2;durP2;ratioP2
25657;SDS011;13517;59.320;18.042;2023-03-31T00:01:17;4.38;;;2.40;;
25657;SDS011;13517;59.320;18.042;2023-03-31T00:03:43;5.97;;;2.33;;
25657;SDS011;13517;59.320;18.042;2023-03-31T00:06:09;5.13;;;2.72;;
25657;SDS011;13517;59.320;18.042;2023-03-31T00:08:36;3.65;;;2.10;;
25657;SDS011;13517;59.320;18.042;2023-03-31T00:11:03;4.85;;;2.40;;
25657;SDS011;13517;59.320;18.042;2023-03-31T00:13:29;5.63;;;2.78;;
25657;SDS011;13517;59.320;18.042;2023-03-31T00:15:55;5.22;;;2.83;;
25657;SDS011;13517;59.320;18.042;2023-03-31T00:18:21;3.65;;;2.75;;
25657;SDS011;13517;59.320;18.042;2023-03-31T00:20:46;3.28;;;2.47;;
25657;SDS011;13517;59.320;18.042;2023-03-31T00:23:12;3.97;;;2.47;;
25657;SDS011;13517;59.320;18.042;2023-03-31T00:25:38;4.13;;;2.65;;
25657;SDS011;13517;59.320;18.042;2023-03-31T00:28:05;5.15;;;3.03;;
25657;SDS011;13517;59.320;18.042;2023-03-31T00:30:30;7.00;;;2.28;;
25657;SDS011;13517;59.320;18.042;2023-03-31T00:32:55;3.90;;;2.17;;
25657;SDS011;13517;59.320;18.042;2023-03-31T00:35:21;4.25;;;2.60;;
25657;SDS011;13517;59.320;18.042;2023-03-31T00:37:46;4.68;;;2.47;;
25657;SDS011;13517;59.320;18.042;2023-03-31T00:40:11;3.80;;;2.15;;
25657;SDS011;13517;59.320;18.042;2023-03-31T00:42:40;6.22;;;2.67;;
25657;SDS011;13517;59.320;18.042;2023-03-31T00:45:28;3.95;;;2.45;;
25657;SDS011;13517;59.320;18.042;2023-03-31T00:47:53;3.42;;;2.30;;
25657;SDS011;13517;59.320;18.042;2023-03-31T00:50:24;3.50;;;2.70;;
25657;SDS011;13517;59.320;18.042;2023-03-31T00:52:53;5.00;;;2.92;;
25657;SDS011;13517;59.320;18.042;2023-03-31T00:55:21;5.03;;;2.60;;
25657;SDS011;13517;59.320;18.042;2023-03-31T00:57:48;2.42;;;2.00;;
25657;SDS011;13517;59.320;18.042;2023-03-31T01:00:17;3.10;;;2.30;;
25657;SDS011;13517;59.320;18.042;2023-03-31T01:02:47;4.20;;;2.60;;
25657;SDS011;13517;59.320;18.042;2023-03-31T01:05:22;5.90;;;2.50;;
25657;SDS011;13517;59.320;18.042;2023-03-31T01:07:50;4.20;;;2.40;;
25657;SDS011;13517;59.320;18.042;2023-03-31T01:10:16;4.90;;;2.00;;
25657;SDS011;13517;59.320;18.042;2023-03-31T01:12:43;6.93;;;2.38;;
25657;SDS011;13517;59.320;18.042;2023-03-31T01:15:08;2.25;;;1.75;;
25657;SDS011;13517;59.320;18.042;2023-03-31T01:17:34;2.22;;;1.90;;
25657;SDS011;13517;59.320;18.042;2023-03-31T01:27:49;2.42;;;2.05;;
25657;SDS011;13517;59.320;18.042;2023-03-31T01:43:03;3.25;;;1.95;;
25657;SDS011;13517;59.320;18.042;2023-03-31T01:52:55;3.30;;;2.40;;
25657;SDS011;13517;59.320;18.042;2023-03-31T01:55:26;4.40;;;2.40;;
25657;SDS011;13517;59.320;18.042;2023-03-31T01:57:59;5.13;;;3.33;;
25657;SDS011;13517;59.320;18.042;2023-03-31T02:00:28;3.53;;;2.33;;
25657;SDS011;13517;59.320;18.042;2023-03-31T02:05:24;3.10;;;2.10;;
25657;SDS011;13517;59.320;18.042;2023-03-31T02:08:07;6.55;;;3.20;;
25657;SDS011;13517;59.320;18.042;2023-03-31T02:13:00;2.88;;;2.25;;
25657;SDS011;13517;59.320;18.042;2023-03-31T02:15:27;2.75;;;1.75;;
25657;SDS011;13517;59.320;18.042;2023-03-31T02:17:55;3.58;;;2.20;;
25657;SDS011;13517;59.320;18.042;2023-03-31T02:20:23;4.28;;;2.08;;
25657;SDS011;13517;59.320;18.042;2023-03-31T02:22:51;5.43;;;1.90;;
25657;SDS011;13517;59.320;18.042;2023-03-31T02:25:18;5.20;;;2.10;;
25657;SDS011;13517;59.320;18.042;2023-03-31T02:27:45;2.72;;;1.80;;
25657;SDS011;13517;59.320;18.042;2023-03-31T02:30:13;2.40;;;1.83;;
25657;SDS011;13517;59.320;18.042;2023-03-31T02:32:42;4.78;;;2.28;;
25657;SDS011;13517;59.320;18.042;2023-03-31T02:35:09;3.75;;;2.40;;
25657;SDS011;13517;59.320;18.042;2023-03-31T02:37:35;2.20;;;1.65;;
25657;SDS011;13517;59.320;18.042;2023-03-31T02:40:04;2.20;;;1.95;;
25657;SDS011;13517;59.320;18.042;2023-03-31T02:42:30;3.42;;;2.05;;
25657;SDS011;13517;59.320;18.042;2023-03-31T02:45:06;3.22;;;2.40;;
25657;SDS011;13517;59.320;18.042;2023-03-31T02:47:31;10.25;;;2.40;;
25657;SDS011;13517;59.320;18.042;2023-03-31T02:49:58;3.28;;;1.98;;
25657;SDS011;13517;59.320;18.042;2023-03-31T03:02:18;2.80;;;2.10;;
25657;SDS011;13517;59.320;18.042;2023-03-31T03:07:24;4.13;;;1.80;;
25657;SDS011;13517;59.320;18.042;2023-03-31T03:19:37;2.33;;;2.00;;
25657;SDS011;13517;59.320;18.042;2023-03-31T03:22:03;3.42;;;2.00;;
25657;SDS011;13517;59.320;18.042;2023-03-31T03:24:28;5.68;;;2.13;;
25657;SDS011;13517;59.320;18.042;2023-03-31T03:26:53;4.60;;;3.00;;
25657;SDS011;13517;59.320;18.042;2023-03-31T03:29:19;2.20;;;1.80;;
25657;SDS011;13517;59.320;18.042;2023-03-31T03:31:44;2.83;;;2.00;;
25657;SDS011;13517;59.320;18.042;2023-03-31T03:34:09;6.45;;;2.42;;
25657;SDS011;13517;59.320;18.042;2023-03-31T03:36:35;3.35;;;2.17;;
25657;SDS011;13517;59.320;18.042;2023-03-31T03:39:02;2.28;;;1.65;;
25657;SDS011;13517;59.320;18.042;2023-03-31T03:41:28;4.00;;;1.85;;
25657;SDS011;13517;59.320;18.042;2023-03-31T03:43:53;2.45;;;2.17;;
25657;SDS011;13517;59.320;18.042;2023-03-31T03:46:18;3.58;;;2.40;;
25657;SDS011;13517;59.320;18.042;2023-03-31T03:48:43;3.92;;;2.10;;
25657;SDS011;13517;59.320;18.042;2023-03-31T03:51:09;4.57;;;2.22;;
25657;SDS011;13517;59.320;18.042;2023-03-31T03:53:34;1.80;;;1.50;;
25657;SDS011;13517;59.320;18.042;2023-03-31T03:56:00;3.85;;;2.42;;
25657;SDS011;13517;59.320;18.042;2023-03-31T03:58:25;3.70;;;1.90;;
25657;SDS011;13517;59.320;18.042;2023-03-31T04:00:50;3.65;;;2.10;;
25657;SDS011;13517;59.320;18.042;2023-03-31T04:03:16;3.10;;;2.80;;
25657;SDS011;13517;59.320;18.042;2023-03-31T04:05:41;2.92;;;1.90;;
25657;SDS011;13517;59.320;18.042;2023-03-31T04:08:06;4.20;;;2.13;;
25657;SDS011;13517;59.320;18.042;2023-03-31T04:10:33;5.55;;;2.30;;
25657;SDS011;13517;59.320;18.042;2023-03-31T04:12:58;3.40;;;1.95;;
25657;SDS011;13517;59.320;18.042;2023-03-31T04:15:23;3.17;;;2.13;;
25657;SDS011;13517;59.320;18.042;2023-03-31T04:17:49;2.47;;;2.03;;
25657;SDS011;13517;59.320;18.042;2023-03-31T04:20:18;5.13;;;2.30;;
25657;SDS011;13517;59.320;18.042;2023-03-31T04:22:44;3.38;;;2.05;;
25657;SDS011;13517;59.320;18.042;2023-03-31T04:25:11;5.18;;;2.55;;
25657;SDS011;13517;59.320;18.042;2023-03-31T04:27:43;6.75;;;2.10;;
25657;SDS011;13517;59.320;18.042;2023-03-31T04:30:13;3.92;;;2.40;;
25657;SDS011;13517;59.320;18.042;2023-03-31T04:32:54;3.10;;;2.25;;
25657;SDS011;13517;59.320;18.042;2023-03-31T04:35:23;4.18;;;2.15;;
25657;SDS011;13517;59.320;18.042;2023-03-31T04:37:49;3.65;;;2.30;;
25657;SDS011;13517;59.320;18.042;2023-03-31T04:40:16;3.67;;;2.28;;
25657;SDS011;13517;59.320;18.042;2023-03-31T04:42:42;4.00;;;2.10;;
25657;SDS011;13517;59.320;18.042;2023-03-31T04:45:07;4.63;;;2.35;;
25657;SDS011;13517;59.320;18.042;2023-03-31T04:47:33;5.28;;;2.00;;
25657;SDS011;13517;59.320;18.042;2023-03-31T04:49:58;5.43;;;2.20;;
25657;SDS011;13517;59.320;18.042;2023-03-31T04:52:23;6.20;;;2.20;;
25657;SDS011;13517;59.320;18.042;2023-03-31T04:54:49;7.07;;;2.30;;
25657;SDS011;13517;59.320;18.042;2023-03-31T04:57:14;3.53;;;2.35;;
25657;SDS011;13517;59.320;18.042;2023-03-31T04:59:40;2.83;;;2.38;;
25657;SDS011;13517;59.320;18.042;2023-03-31T05:02:05;7.13;;;2.40;;
25657;SDS011;13517;59.320;18.042;2023-03-31T05:04:30;6.97;;;2.50;;
25657;SDS011;13517;59.320;18.042;2023-03-31T05:06:56;6.18;;;2.80;;
25657;SDS011;13517;59.320;18.042;2023-03-31T05:09:21;5.03;;;2.20;;
25657;SDS011;13517;59.320;18.042;2023-03-31T05:11:46;3.45;;;2.38;;
25657;SDS011;13517;59.320;18.042;2023-03-31T05:14:12;5.18;;;2.30;;
25657;SDS011;13517;59.320;18.042;2023-03-31T05:16:37;4.78;;;2.25;;
25657;SDS011;13517;59.320;18.042;2023-03-31T05:19:02;4.82;;;2.30;;
25657;SDS011;13517;59.320;18.042;2023-03-31T05:21:27;6.72;;;2.80;;
25657;SDS011;13517;59.320;18.042;2023-03-31T05:23:54;3.63;;;2.58;;
25657;SDS011;13517;59.320;18.042;2023-03-31T05:26:20;3.45;;;2.60;;
25657;SDS011;13517;59.320;18.042;2023-03-31T05:28:47;6.35;;;2.50;;
25657;SDS011;13517;59.320;18.042;2023-03-31T05:31:12;8.57;;;2.83;;
25657;SDS011;13517;59.320;18.042;2023-03-31T05:33:38;2.72;;;1.90;;
25657;SDS011;13517;59.320;18.042;2023-03-31T05:36:06;3.13;;;2.10;;
25657;SDS011;13517;59.320;18.042;2023-03-31T05:38:32;3.83;;;2.08;;
25657;SDS011;13517;59.320;18.042;2023-03-31T05:40:58;6.70;;;2.70;;
25657;SDS011;13517;59.320;18.042;2023-03-31T05:43:24;4.95;;;2.97;;
25657;SDS011;13517;59.320;18.042;2023-03-31T05:45:49;5.10;;;2.30;;
25657;SDS011;13517;59.320;18.042;2023-03-31T05:48:14;3.70;;;2.53;;
25657;SDS011;13517;59.320;18.042;2023-03-31T05:50:40;4.85;;;2.60;;
25657;SDS011;13517;59.320;18.042;2023-03-31T05:53:07;4.93;;;2.08;;
25657;SDS011;13517;59.320;18.042;2023-03-31T05:55:34;5.70;;;2.17;;
25657;SDS011;13517;59.320;18.042;2023-03-31T05:57:59;2.97;;;2.30;;
25657;SDS011;13517;59.320;18.042;2023-03-31T06:00:25;5.82;;;2.95;;
25657;SDS011;13517;59.320;18.042;2023-03-31T06:02:50;3.03;;;2.22;;
25657;SDS011;13517;59.320;18.042;2023-03-31T06:05:15;3.75;;;2.25;;
25657;SDS011;13517;59.320;18.042;2023-03-31T06:07:41;3.90;;;2.40;;
25657;SDS011;13517;59.320;18.042;2023-03-31T06:10:06;7.40;;;2.38;;
25657;SDS011;13517;59.320;18.042;2023-03-31T06:12:32;6.05;;;2.47;;
25657;SDS011;13517;59.320;18.042;2023-03-31T06:14:58;5.50;;;2.28;;
25657;SDS011;13517;59.320;18.042;2023-03-31T06:17:23;7.15;;;2.08;;
25657;SDS011;13517;59.320;18.042;2023-03-31T06:19:49;4.93;;;2.33;;
25657;SDS011;13517;59.320;18.042;2023-03-31T06:22:14;4.90;;;2.30;;
25657;SDS011;13517;59.320;18.042;2023-03-31T06:24:39;3.97;;;2.17;;
25657;SDS011;13517;59.320;18.042;2023-03-31T06:27:05;5.32;;;2.50;;
25657;SDS011;13517;59.320;18.042;2023-03-31T06:29:30;3.65;;;2.50;;
25657;SDS011;13517;59.320;18.042;2023-03-31T06:31:56;3.85;;;2.40;;
25657;SDS011;13517;59.320;18.042;2023-03-31T06:34:21;4.68;;;2.78;;
25657;SDS011;13517;59.320;18.042;2023-03-31T06:36:46;3.80;;;2.30;;
25657;SDS011;13517;59.320;18.042;2023-03-31T06:39:11;9.98;;;2.63;;
25657;SDS011;13517;59.320;18.042;2023-03-31T06:41:37;3.47;;;2.42;;
25657;SDS011;13517;59.320;18.042;2023-03-31T06:44:03;5.45;;;2.47;;
25657;SDS011;13517;59.320;18.042;2023-03-31T06:46:28;3.80;;;2.60;;
25657;SDS011;13517;59.320;18.042;2023-03-31T06:48:53;6.28;;;2.67;;
25657;SDS011;13517;59.320;18.042;2023-03-31T06:51:19;4.22;;;2.50;;
25657;SDS011;13517;59.320;18.042;2023-03-31T06:53:44;6.97;;;2.80;;
25657;SDS011;13517;59.320;18.042;2023-03-31T06:56:09;3.65;;;2.45;;
25657;SDS011;13517;59.320;18.042;2023-03-31T06:58:35;4.45;;;2.53;;
25657;SDS011;13517;59.320;18.042;2023-03-31T07:01:03;6.07;;;2.70;;
25657;SDS011;13517;59.320;18.042;2023-03-31T07:03:30;5.80;;;2.58;;
25657;SDS011;13517;59.320;18.042;2023-03-31T07:05:55;5.13;;;2.45;;
25657;SDS011;13517;59.320;18.042;2023-03-31T07:08:21;8.88;;;3.05;;
25657;SDS011;13517;59.320;18.042;2023-03-31T07:10:46;6.97;;;2.63;;
25657;SDS011;13517;59.320;18.042;2023-03-31T07:13:16;3.33;;;2.67;;
25657;SDS011;13517;59.320;18.042;2023-03-31T07:15:42;6.15;;;2.63;;
25657;SDS011;13517;59.320;18.042;2023-03-31T07:18:07;3.85;;;2.70;;
25657;SDS011;13517;59.320;18.042;2023-03-31T07:20:33;5.60;;;2.70;;
25657;SDS011;13517;59.320;18.042;2023-03-31T07:22:59;5.40;;;3.03;;
25657;SDS011;13517;59.320;18.042;2023-03-31T07:25:27;4.55;;;2.78;;
25657;SDS011;13517;59.320;18.042;2023-03-31T07:27:52;5.22;;;2.42;;
25657;SDS011;13517;59.320;18.042;2023-03-31T07:30:18;4.07;;;2.83;;
25657;SDS011;13517;59.320;18.042;2023-03-31T07:32:48;5.60;;;2.55;;
25657;SDS011;13517;59.320;18.042;2023-03-31T07:35:13;3.83;;;2.13;;
25657;SDS011;13517;59.320;18.042;2023-03-31T07:37:40;2.25;;;2.05;;
25657;SDS011;13517;59.320;18.042;2023-03-31T07:40:06;4.60;;;2.67;;
25657;SDS011;13517;59.320;18.042;2023-03-31T07:42:33;4.00;;;2.63;;
25657;SDS011;13517;59.320;18.042;2023-03-31T07:44:58;3.60;;;2.70;;
25657;SDS011;13517;59.320;18.042;2023-03-31T07:47:23;7.07;;;2.70;;
25657;SDS011;13517;59.320;18.042;2023-03-31T07:49:49;4.05;;;2.72;;
25657;SDS011;13517;59.320;18.042;2023-03-31T07:52:15;3.63;;;2.40;;
25657;SDS011;13517;59.320;18.042;2023-03-31T07:54:40;4.70;;;2.67;;
25657;SDS011;13517;59.320;18.042;2023-03-31T07:57:05;5.75;;;2.28;;
25657;SDS011;13517;59.320;18.042;2023-03-31T07:59:32;6.05;;;3.03;;
25657;SDS011;13517;59.320;18.042;2023-03-31T08:01:57;4.07;;;2.60;;
25657;SDS011;13517;59.320;18.042;2023-03-31T08:04:23;2.55;;;2.33;;
25657;SDS011;13517;59.320;18.042;2023-03-31T08:06:48;5.43;;;2.00;;
25657;SDS011;13517;59.320;18.042;2023-03-31T08:09:15;3.15;;;2.00;;
25657;SDS011;13517;59.320;18.042;2023-03-31T08:11:41;4.32;;;2.47;;
25657;SDS011;13517;59.320;18.042;2023-03-31T08:14:07;4.50;;;2.70;;
25657;SDS011;13517;59.320;18.042;2023-03-31T08:16:32;3.40;;;2.20;;
25657;SDS011;13517;59.320;18.042;2023-03-31T08:18:57;3.25;;;2.00;;
25657;SDS011;13517;59.320;18.042;2023-03-31T08:21:23;2.35;;;2.00;;
25657;SDS011;13517;59.320;18.042;2023-03-31T08:23:48;3.30;;;2.05;;
25657;SDS011;13517;59.320;18.042;2023-03-31T08:26:14;7.28;;;2.00;;
25657;SDS011;13517;59.320;18.042;2023-03-31T08:28:42;4.85;;;3.00;;
25657;SDS011;13517;59.320;18.042;2023-03-31T08:31:07;4.80;;;1.95;;
25657;SDS011;13517;59.320;18.042;2023-03-31T08:33:33;2.70;;;1.60;;
25657;SDS011;13517;59.320;18.042;2023-03-31T08:36:04;3.67;;;2.30;;
25657;SDS011;13517;59.320;18.042;2023-03-31T08:38:32;2.72;;;1.98;;
25657;SDS011;13517;59.320;18.042;2023-03-31T08:41:01;8.90;;;2.50;;
25657;SDS011;13517;59.320;18.042;2023-03-31T08:43:29;3.55;;;2.03;;
25657;SDS011;13517;59.320;18.042;2023-03-31T08:45:56;3.00;;;1.98;;
25657;SDS011;13517;59.320;18.042;2023-03-31T08:48:26;6.18;;;2.60;;
25657;SDS011;13517;59.320;18.042;2023-03-31T08:51:01;4.18;;;2.42;;
25657;SDS011;13517;59.320;18.042;2023-03-31T08:53:28;5.40;;;2.78;;
25657;SDS011;13517;59.320;18.042;2023-03-31T08:55:55;3.88;;;2.03;;
25657;SDS011;13517;59.320;18.042;2023-03-31T09:00:50;6.20;;;1.77;;
25657;SDS011;13517;59.320;18.042;2023-03-31T09:03:20;4.13;;;2.15;;
25657;SDS011;13517;59.320;18.042;2023-03-31T09:06:01;2.28;;;1.73;;
25657;SDS011;13517;59.320;18.042;2023-03-31T09:08:32;3.30;;;2.05;;
25657;SDS011;13517;59.320;18.042;2023-03-31T09:11:24;3.00;;;2.10;;
25657;SDS011;13517;59.320;18.042;2023-03-31T09:19:00;3.00;;;2.03;;
25657;SDS011;13517;59.320;18.042;2023-03-31T09:21:37;5.07;;;1.80;;
25657;SDS011;13517;59.320;18.042;2023-03-31T09:24:11;5.03;;;1.85;;
25657;SDS011;13517;59.320;18.042;2023-03-31T09:26:40;2.53;;;1.95;;
25657;SDS011;13517;59.320;18.042;2023-03-31T09:29:10;4.07;;;2.40;;
25657;SDS011;13517;59.320;18.042;2023-03-31T09:31:38;3.40;;;2.00;;
25657;SDS011;13517;59.320;18.042;2023-03-31T09:34:09;2.95;;;1.75;;
25657;SDS011;13517;59.320;18.042;2023-03-31T09:36:36;3.75;;;1.83;;
25657;SDS011;13517;59.320;18.042;2023-03-31T09:39:01;2.97;;;1.63;;
25657;SDS011;13517;59.320;18.042;2023-03-31T09:41:27;2.95;;;1.73;;
25657;SDS011;13517;59.320;18.042;2023-03-31T09:43:52;4.13;;;2.05;;
25657;SDS011;13517;59.320;18.042;2023-03-31T09:49:03;2.25;;;1.70;;
25657;SDS011;13517;59.320;18.042;2023-03-31T09:51:31;2.10;;;1.83;;
25657;SDS011;13517;59.320;18.042;2023-03-31T09:54:06;3.63;;;1.63;;
25657;SDS011;13517;59.320;18.042;2023-03-31T09:56:43;2.00;;;1.35;;
25657;SDS011;13517;59.320;18.042;2023-03-31T09:59:17;2.30;;;1.58;;
25657;SDS011;13517;59.320;18.042;2023-03-31T10:01:44;3.53;;;2.03;;
25657;SDS011;13517;59.320;18.042;2023-03-31T10:04:11;1.80;;;1.50;;
25657;SDS011;13517;59.320;18.042;2023-03-31T10:06:41;3.88;;;1.85;;
25657;SDS011;13517;59.320;18.042;2023-03-31T10:09:06;4.30;;;2.45;;
25657;SDS011;13517;59.320;18.042;2023-03-31T10:11:34;2.58;;;1.90;;
25657;SDS011;13517;59.320;18.042;2023-03-31T10:18:53;3.60;;;1.55;;
25657;SDS011;13517;59.320;18.042;2023-03-31T10:21:26;6.65;;;2.08;;
25657;SDS011;13517;59.320;18.042;2023-03-31T10:23:51;2.45;;;1.83;;
25657;SDS011;13517;59.320;18.042;2023-03-31T10:26:18;2.45;;;1.92;;
25657;SDS011;13517;59.320;18.042;2023-03-31T10:28:45;3.38;;;1.70;;
25657;SDS011;13517;59.320;18.042;2023-03-31T10:31:13;5.35;;;1.80;;
25657;SDS011;13517;59.320;18.042;2023-03-31T10:33:41;4.35;;;1.95;;
25657;SDS011;13517;59.320;18.042;2023-03-31T10:36:29;3.83;;;2.58;;
25657;SDS011;13517;59.320;18.042;2023-03-31T10:38:56;3.08;;;2.33;;
25657;SDS011;13517;59.320;18.042;2023-03-31T10:41:25;2.88;;;1.73;;
25657;SDS011;13517;59.320;18.042;2023-03-31T10:43:52;4.53;;;2.17;;
25657;SDS011;13517;59.320;18.042;2023-03-31T10:46:18;3.65;;;2.22;;
25657;SDS011;13517;59.320;18.042;2023-03-31T10:48:43;5.78;;;2.30;;
25657;SDS011;13517;59.320;18.042;2023-03-31T10:51:11;4.90;;;1.88;;
25657;SDS011;13517;59.320;18.042;2023-03-31T10:53:45;2.92;;;1.92;;
25657;SDS011;13517;59.320;18.042;2023-03-31T11:03:49;2.78;;;2.03;;
25657;SDS011;13517;59.320;18.042;2023-03-31T11:09:02;2.35;;;1.83;;
25657;SDS011;13517;59.320;18.042;2023-03-31T11:16:48;7.53;;;2.10;;
25657;SDS011;13517;59.320;18.042;2023-03-31T11:19:21;2.60;;;2.25;;
25657;SDS011;13517;59.320;18.042;2023-03-31T11:29:26;3.03;;;2.10;;
25657;SDS011;13517;59.320;18.042;2023-03-31T11:37:07;2.67;;;1.80;;
25657;SDS011;13517;59.320;18.042;2023-03-31T11:39:43;3.13;;;1.85;;
25657;SDS011;13517;59.320;18.042;2023-03-31T11:42:15;2.17;;;1.98;;
25657;SDS011;13517;59.320;18.042;2023-03-31T11:44:45;2.60;;;1.77;;
25657;SDS011;13517;59.320;18.042;2023-03-31T11:47:13;2.85;;;1.80;;
25657;SDS011;13517;59.320;18.042;2023-03-31T11:49:42;3.38;;;1.88;;
25657;SDS011;13517;59.320;18.042;2023-03-31T11:52:13;2.42;;;2.22;;
25657;SDS011;13517;59.320;18.042;2023-03-31T11:57:18;2.47;;;2.05;;
25657;SDS011;13517;59.320;18.042;2023-03-31T11:59:46;2.97;;;1.85;;
25657;SDS011;13517;59.320;18.042;2023-03-31T12:04:39;3.13;;;1.98;;
25657;SDS011;13517;59.320;18.042;2023-03-31T12:12:40;3.83;;;1.63;;
25657;SDS011;13517;59.320;18.042;2023-03-31T12:15:20;4.47;;;2.13;;
25657;SDS011;13517;59.320;18.042;2023-03-31T12:17:48;3.63;;;1.77;;
25657;SDS011;13517;59.320;18.042;2023-03-31T12:20:27;4.63;;;1.88;;
25657;SDS011;13517;59.320;18.042;2023-03-31T12:22:53;4.00;;;2.08;;
25657;SDS011;13517;59.320;18.042;2023-03-31T12:25:20;3.80;;;2.13;;
25657;SDS011;13517;59.320;18.042;2023-03-31T12:27:47;2.40;;;1.70;;
25657;SDS011;13517;59.320;18.042;2023-03-31T12:33:03;3.08;;;1.70;;
25657;SDS011;13517;59.320;18.042;2023-03-31T12:45:46;3.85;;;1.92;;
25657;SDS011;13517;59.320;18.042;2023-03-31T12:53:38;3.72;;;1.85;;
25657;SDS011;13517;59.320;18.042;2023-03-31T12:56:09;3.47;;;2.13;;
25657;SDS011;13517;59.320;18.042;2023-03-31T12:58:38;1.98;;;1.60;;
25657;SDS011;13517;59.320;18.042;2023-03-31T13:05:58;5.40;;;1.55;;
25657;SDS011;13517;59.320;18.042;2023-03-31T13:11:08;1.95;;;1.73;;
25657;SDS011;13517;59.320;18.042;2023-03-31T13:13:33;2.70;;;1.70;;
25657;SDS011;13517;59.320;18.042;2023-03-31T13:15:59;3.05;;;1.60;;
25657;SDS011;13517;59.320;18.042;2023-03-31T13:18:25;3.38;;;1.48;;
25657;SDS011;13517;59.320;18.042;2023-03-31T13:21:03;2.60;;;1.45;;
25657;SDS011;13517;59.320;18.042;2023-03-31T13:23:38;1.98;;;1.42;;
25657;SDS011;13517;59.320;18.042;2023-03-31T13:26:34;1.45;;;1.23;;
25657;SDS011;13517;59.320;18.042;2023-03-31T13:34:27;4.90;;;2.15;;
25657;SDS011;13517;59.320;18.042;2023-03-31T13:39:54;3.85;;;1.30;;
25657;SDS011;13517;59.320;18.042;2023-03-31T13:55:53;4.53;;;1.58;;
25657;SDS011;13517;59.320;18.042;2023-03-31T13:58:37;2.75;;;1.27;;
25657;SDS011;13517;59.320;18.042;2023-03-31T14:08:46;2.35;;;1.42;;
25657;SDS011;13517;59.320;18.042;2023-03-31T14:11:15;3.17;;;1.33;;
25657;SDS011;13517;59.320;18.042;2023-03-31T14:13:41;4.65;;;1.35;;
25657;SDS011;13517;59.320;18.042;2023-03-31T14:16:06;3.45;;;1.48;;
25657;SDS011;13517;59.320;18.042;2023-03-31T14:18:33;5.20;;;1.77;;
25657;SDS011;13517;59.320;18.042;2023-03-31T14:28:50;7.25;;;2.13;;
25657;SDS011;13517;59.320;18.042;2023-03-31T14:31:32;2.40;;;1.30;;
25657;SDS011;13517;59.320;18.042;2023-03-31T14:38:50;2.22;;;1.50;;
25657;SDS011;13517;59.320;18.042;2023-03-31T14:41:16;3.08;;;1.40;;
25657;SDS011;13517;59.320;18.042;2023-03-31T14:43:45;3.20;;;1.45;;
25657;SDS011;13517;59.320;18.042;2023-03-31T14:46:12;3.92;;;1.45;;
25657;SDS011;13517;59.320;18.042;2023-03-31T14:48:43;1.52;;;1.33;;
25657;SDS011;13517;59.320;18.042;2023-03-31T14:51:10;1.85;;;1.42;;
25657;SDS011;13517;59.320;18.042;2023-03-31T14:53:35;3.47;;;1.30;;
25657;SDS011;13517;59.320;18.042;2023-03-31T14:56:02;1.73;;;1.23;;
25657;SDS011;13517;59.320;18.042;2023-03-31T14:58:30;3.95;;;1.20;;
25657;SDS011;13517;59.320;18.042;2023-03-31T15:00:56;1.23;;;1.08;;
25657;SDS011;13517;59.320;18.042;2023-03-31T15:03:21;1.33;;;1.23;;
25657;SDS011;13517;59.320;18.042;2023-03-31T15:05:49;2.83;;;1.30;;
25657;SDS011;13517;59.320;18.042;2023-03-31T15:08:16;1.98;;;1.60;;
25657;SDS011;13517;59.320;18.042;2023-03-31T15:10:42;4.60;;;1.50;;
25657;SDS011;13517;59.320;18.042;2023-03-31T15:13:10;1.10;;;1.00;;
25657;SDS011;13517;59.320;18.042;2023-03-31T15:15:36;3.20;;;1.42;;
25657;SDS011;13517;59.320;18.042;2023-03-31T15:18:01;3.38;;;1.65;;
25657;SDS011;13517;59.320;18.042;2023-03-31T15:20:31;3.47;;;1.58;;
25657;SDS011;13517;59.320;18.042;2023-03-31T15:22:59;2.25;;;1.60;;
25657;SDS011;13517;59.320;18.042;2023-03-31T15:25:36;2.15;;;1.73;;
25657;SDS011;13517;59.320;18.042;2023-03-31T15:28:04;4.50;;;1.48;;
25657;SDS011;13517;59.320;18.042;2023-03-31T15:30:30;2.90;;;2.50;;
25657;SDS011;13517;59.320;18.042;2023-03-31T15:32:56;1.65;;;1.15;;
25657;SDS011;13517;59.320;18.042;2023-03-31T15:35:22;6.88;;;1.85;;
25657;SDS011;13517;59.320;18.042;2023-03-31T15:37:49;1.58;;;1.30;;
25657;SDS011;13517;59.320;18.042;2023-03-31T15:40:17;3.40;;;1.30;;
25657;SDS011;13517;59.320;18.042;2023-03-31T15:42:43;1.35;;;1.10;;
25657;SDS011;13517;59.320;18.042;2023-03-31T15:47:53;2.42;;;1.20;;
25657;SDS011;13517;59.320;18.042;2023-03-31T15:50:20;3.15;;;1.45;;
25657;SDS011;13517;59.320;18.042;2023-03-31T15:52:50;7.68;;;1.50;;
25657;SDS011;13517;59.320;18.042;2023-03-31T15:57:47;2.42;;;1.17;;
25657;SDS011;13517;59.320;18.042;2023-03-31T16:02:57;1.08;;;0.93;;
25657;SDS011;13517;59.320;18.042;2023-03-31T16:07:49;1.95;;;1.20;;
25657;SDS011;13517;59.320;18.042;2023-03-31T16:10:16;1.95;;;1.38;;
25657;SDS011;13517;59.320;18.042;2023-03-31T16:12:47;2.15;;;1.13;;
25657;SDS011;13517;59.320;18.042;2023-03-31T16:15:15;1.60;;;1.08;;
25657;SDS011;13517;59.320;18.042;2023-03-31T16:17:49;2.78;;;1.35;;
25657;SDS011;13517;59.320;18.042;2023-03-31T16:22:42;3.55;;;1.30;;
25657;SDS011;13517;59.320;18.042;2023-03-31T16:25:10;2.40;;;1.30;;
25657;SDS011;13517;59.320;18.042;2023-03-31T16:27:37;2.08;;;1.10;;
25657;SDS011;13517;59.320;18.042;2023-03-31T16:30:07;4.20;;;1.60;;
25657;SDS011;13517;59.320;18.042;2023-03-31T16:32:33;4.45;;;1.38;;
25657;SDS011;13517;59.320;18.042;2023-03-31T16:35:00;2.30;;;1.38;;
25657;SDS011;13517;59.320;18.042;2023-03-31T16:37:25;5.95;;;1.42;;
25657;SDS011;13517;59.320;18.042;2023-03-31T16:39:51;1.60;;;1.00;;
25657;SDS011;13517;59.320;18.042;2023-03-31T16:42:16;2.17;;;1.27;;
25657;SDS011;13517;59.320;18.042;2023-03-31T16:44:42;2.25;;;1.42;;
25657;SDS011;13517;59.320;18.042;2023-03-31T16:47:08;4.63;;;1.80;;
25657;SDS011;13517;59.320;18.042;2023-03-31T16:49:33;3.42;;;1.50;;
25657;SDS011;13517;59.320;18.042;2023-03-31T16:51:58;2.40;;;1.38;;
25657;SDS011;13517;59.320;18.042;2023-03-31T16:54:24;2.65;;;1.70;;
25657;SDS011;13517;59.320;18.042;2023-03-31T16:56:49;4.25;;;1.50;;
25657;SDS011;13517;59.320;18.042;2023-03-31T16:59:15;2.67;;;1.75;;
25657;SDS011;13517;59.320;18.042;2023-03-31T17:01:40;2.13;;;1.70;;
25657;SDS011;13517;59.320;18.042;2023-03-31T17:04:05;2.00;;;1.42;;
25657;SDS011;13517;59.320;18.042;2023-03-31T17:06:31;3.13;;;1.23;;
25657;SDS011;13517;59.320;18.042;2023-03-31T17:08:57;1.33;;;1.23;;
25657;SDS011;13517;59.320;18.042;2023-03-31T17:11:22;4.18;;;1.30;;
25657;SDS011;13517;59.320;18.042;2023-03-31T17:13:47;2.03;;;1.38;;
25657;SDS011;13517;59.320;18.042;2023-03-31T17:16:14;1.77;;;1.40;;
25657;SDS011;13517;59.320;18.042;2023-03-31T17:18:39;1.95;;;1.42;;
25657;SDS011;13517;59.320;18.042;2023-03-31T17:21:12;1.23;;;1.13;;
25657;SDS011;13517;59.320;18.042;2023-03-31T17:23:37;2.05;;;1.30;;
25657;SDS011;13517;59.320;18.042;2023-03-31T17:26:03;6.70;;;1.42;;
25657;SDS011;13517;59.320;18.042;2023-03-31T17:28:30;1.98;;;1.40;;
25657;SDS011;13517;59.320;18.042;2023-03-31T17:30:55;5.03;;;1.50;;
25657;SDS011;13517;59.320;18.042;2023-03-31T17:33:21;5.35;;;1.88;;
25657;SDS011;13517;59.320;18.042;2023-03-31T17:35:47;5.43;;;1.30;;
25657;SDS011;13517;59.320;18.042;2023-03-31T17:38:12;4.25;;;1.45;;
25657;SDS011;13517;59.320;18.042;2023-03-31T17:40:38;4.55;;;1.48;;
25657;SDS011;13517;59.320;18.042;2023-03-31T17:43:03;3.53;;;2.13;;
25657;SDS011;13517;59.320;18.042;2023-03-31T17:45:29;2.75;;;1.42;;